Impacts METAR Board INFO
IDs:

KLAX - Los Angeles Intl, CA, US

Updated at: 1433 UTC 18 Dec 2017
Potential Impact None Slight Moderate High
Time18/02Z 18/03Z 18/04Z 18/05Z 18/06Z 18/07Z 18/08Z 18/09Z 18/10Z 18/11Z 18/12Z 18/13Z 18/14Z
VIS10 10 10 10 10 10 10 10 10 10 10 10 10
CIG-- -- -- -- -- -- -- -- -- -- -- -- --
CoverFEWFEWFEWCLRCLRCLRCLRCLRCLRCLRSCTSCTFEW
FltCatVFRVFRVFRVFRVFRVFRVFRVFRVFRVFRVFRVFRVFR
WX--------------------------
WDir0360403503500340360904005080
WSpd0 6 6 7 5 0 7 4 3 3 0 3 3
WGst-- -- -- -- -- -- -- -- -- -- -- -- --
Raw hourly METARs
KLAX 180153Z 00000KT 10SM FEW200 19/M06 A2997 RMK AO2 SLP148 T01891056
KLAX 180253Z 36006KT 10SM FEW200 18/M06 A3000 RMK AO2 SLP156 T01781056 51023
KLAX 180353Z 04006KT 10SM FEW200 17/M06 A3001 RMK AO2 SLP161 T01721056
KLAX 180453Z 35007KT 10SM CLR 17/M06 A3003 RMK AO2 SLP168 T01721061
KLAX 180553Z 35005KT 10SM CLR 17/M07 A3004 RMK AO2 SLP171 T01671067 10222 20167 51015
KLAX 180653Z 00000KT 10SM CLR 16/M07 A3007 RMK AO2 SLP179 T01611067
KLAX 180753Z 34007KT 10SM CLR 16/M05 A3006 RMK AO2 SLP178 T01561050 402330133
KLAX 180853Z 36004KT 10SM CLR 15/M06 A3007 RMK AO2 SLP181 T01501061 51010
KLAX 180953Z 09003KT 10SM CLR 13/M06 A3009 RMK AO2 SLP186 T01331056
KLAX 181053Z 04003KT 10SM CLR 12/M04 A3009 RMK AO2 SLP187 T01171044
KLAX 181153Z 00000KT 10SM SCT250 13/M06 A3009 RMK AO2 SLP187 T01281056 10172 20117 50005
KLAX 181253Z 05003KT 10SM FEW200 SCT250 12/M05 A3010 RMK AO2 SLP190 T01171050
KLAX 181353Z 08003KT 10SM FEW200 FEW250 12/M07 A3012 RMK AO2 SLP197 T01221067